Time;durP1;ratioP1;P1;durP2;ratioP2;P2;SDS_P1;SDS_P2;PMS_P1;PMS_P2;Temp;Humidity;BMP_temperature;BMP_pressure;BME280_temperature;BME280_humidity;BME280_pressure;Samples;Min_cycle;Max_cycle;Signal;HPM_P1;HPM_P2
2022/09/09 00:01:11;;;;;;;1.95;1.27;;;;;;;20.72;71.35;99497.06;4362253;32;34872;-76
2022/09/09 00:04:04;;;;;;;2.05;1.60;;;;;;;20.84;71.26;99501.91;4349824;32;35104;-74
2022/09/09 00:06:35;;;;;;;2.58;1.73;;;;;;;20.78;71.48;99493.00;4362120;32;34128;-76
2022/09/09 00:09:16;;;;;;;1.92;1.50;;;;;;;20.57;71.84;99489.22;4347010;33;34141;-76
2022/09/09 00:11:47;;;;;;;1.90;1.52;;;;;;;20.32;72.90;99491.59;4348252;33;33868;-75
2022/09/09 00:14:24;;;;;;;3.20;1.83;;;;;;;20.53;72.16;99496.50;4347719;33;34623;-77
2022/09/09 00:16:55;;;;;;;2.00;1.70;;;;;;;20.16;73.02;99509.69;4347058;33;34712;-76
2022/09/09 00:19:30;;;;;;;2.22;1.70;;;;;;;19.94;74.93;99510.59;4348180;33;34392;-75
2022/09/09 00:22:07;;;;;;;3.50;1.70;;;;;;;20.11;74.20;99509.81;4347164;33;34783;-75
2022/09/09 00:24:42;;;;;;;1.80;1.60;;;;;;;20.24;73.49;99508.91;4348273;33;34217;-75
2022/09/09 00:27:38;;;;;;;2.42;1.52;;;;;;;20.36;73.30;99503.59;4347459;33;34162;-77
2022/09/09 00:30:22;;;;;;;2.03;1.60;;;;;;;20.20;73.48;99499.66;4341855;33;33156;-76
2022/09/09 00:32:54;;;;;;;3.22;1.50;;;;;;;20.36;72.75;99498.06;4347924;33;33823;-77
2022/09/09 00:35:25;;;;;;;1.73;1.40;;;;;;;20.24;73.56;99501.47;4348243;33;34250;-75
2022/09/09 00:38:10;;;;;;;2.70;1.70;;;;;;;20.22;73.46;99506.47;4348332;33;33987;-77
2022/09/09 00:40:49;;;;;;;2.22;1.80;;;;;;;19.77;75.02;99500.31;4346981;33;33298;-77
2022/09/09 00:43:25;;;;;;;2.12;1.80;;;;;;;19.72;75.75;99503.16;4346854;33;33869;-77
2022/09/09 00:46:18;;;;;;;1.90;1.58;;;;;;;20.11;73.34;99498.81;4346849;33;35180;-76
2022/09/09 00:49:18;;;;;;;1.50;1.40;;;;;;;19.75;75.06;99497.06;4346751;33;34715;-75
2022/09/09 00:52:10;;;;;;;2.00;1.52;;;;;;;19.77;75.05;99503.84;4323331;32;33487;-75
2022/09/09 00:54:51;;;;;;;2.17;1.60;;;;;;;20.14;73.37;99503.69;4348234;33;34142;-76
2022/09/09 00:57:31;;;;;;;2.05;1.48;;;;;;;19.98;73.83;99508.81;4334661;33;34233;-76
2022/09/09 01:00:22;;;;;;;1.75;1.40;;;;;;;19.84;74.30;99503.41;4347347;33;34719;-74
2022/09/09 01:03:02;;;;;;;1.75;1.48;;;;;;;19.88;74.17;99518.16;4347538;33;33496;-75
2022/09/09 01:05:32;;;;;;;2.20;1.35;;;;;;;19.88;73.96;99516.22;4347963;33;34510;-75
2022/09/09 01:08:02;;;;;;;2.00;1.60;;;;;;;20.38;71.64;99522.56;4348591;32;34292;-83
2022/09/09 01:10:41;;;;;;;1.55;1.45;;;;;;;18.62;79.84;99511.50;4362559;32;34984;-75
2022/09/09 01:13:15;;;;;;;3.05;1.83;;;;;;;19.34;76.79;99520.06;4348970;32;33517;-75
2022/09/09 01:15:44;;;;;;;1.85;1.60;;;;;;;19.46;75.84;99526.63;4348808;32;34503;-75
2022/09/09 01:18:14;;;;;;;1.80;1.40;;;;;;;19.92;73.46;99530.16;4362718;32;34107;-76
2022/09/09 01:21:06;;;;;;;1.75;1.42;;;;;;;19.95;73.07;99534.22;4349078;32;34527;-75
2022/09/09 01:23:38;;;;;;;2.12;1.67;;;;;;;19.20;76.68;99540.22;4362660;32;33122;-76
2022/09/09 01:26:22;;;;;;;3.30;2.00;;;;;;;18.78;78.42;99545.00;4362639;32;33445;-76
2022/09/09 01:28:54;;;;;;;2.30;1.80;;;;;;;19.10;77.49;99547.88;4362833;32;34259;-74
2022/09/09 01:31:27;;;;;;;2.10;1.90;;;;;;;19.52;75.67;99540.25;4349520;32;33744;-74
2022/09/09 01:33:55;;;;;;;1.70;1.52;;;;;;;19.42;76.07;99544.91;4348696;32;33481;-74
2022/09/09 01:36:37;;;;;;;3.37;1.75;;;;;;;19.83;74.19;99543.91;4362374;32;33957;-77
2022/09/09 01:39:05;;;;;;;1.87;1.65;;;;;;;20.04;73.11;99546.91;4348596;32;34286;-74
2022/09/09 01:41:32;;;;;;;2.45;1.70;;;;;;;19.82;74.11;99549.72;4362099;32;33600;-75
2022/09/09 01:44:01;;;;;;;3.45;1.45;;;;;;;19.60;74.50;99556.03;4349089;32;34282;-73
2022/09/09 01:46:29;;;;;;;3.40;1.83;;;;;;;19.45;75.42;99552.50;4349376;32;34097;-73
2022/09/09 01:48:59;;;;;;;2.20;2.00;;;;;;;19.52;75.42;99559.53;4362178;32;35048;-75
2022/09/09 01:51:26;;;;;;;1.90;1.70;;;;;;;19.50;75.43;99564.53;4348947;32;33934;-75
2022/09/09 01:53:55;;;;;;;2.47;1.80;;;;;;;19.63;74.96;99563.62;4362512;32;33574;-75
2022/09/09 01:56:40;;;;;;;2.08;1.80;;;;;;;19.52;75.46;99562.28;4362193;32;34783;-76
2022/09/09 01:59:18;;;;;;;1.70;1.50;;;;;;;19.34;76.15;99558.59;4362909;32;33993;-74
2022/09/09 02:02:15;;;;;;;3.20;1.70;;;;;;;19.63;74.76;99556.22;4363677;32;34210;-74
2022/09/09 02:04:47;;;;;;;1.98;1.60;;;;;;;19.47;74.84;99552.22;4364175;32;34282;-75
2022/09/09 02:07:36;;;;;;;2.33;1.80;;;;;;;19.20;76.83;99545.72;4350731;32;34170;-76
2022/09/09 02:10:14;;;;;;;1.98;1.70;;;;;;;19.67;74.79;99548.97;4364087;32;34246;-74
2022/09/09 02:12:46;;;;;;;2.17;1.87;;;;;;;19.68;74.63;99549.75;4363560;32;32280;-74
2022/09/09 02:15:53;;;;;;;2.10;1.70;;;;;;;19.58;75.01;99550.00;4350326;32;33530;-73
2022/09/09 02:18:28;;;;;;;2.55;2.03;;;;;;;19.50;75.65;99548.00;4334810;32;34746;-74
2022/09/09 02:20:57;;;;;;;2.92;2.30;;;;;;;19.39;76.14;99556.50;4363860;32;34161;-76
2022/09/09 02:23:25;;;;;;;2.12;1.77;;;;;;;19.58;74.68;99556.31;4350712;32;33812;-77
2022/09/09 02:25:55;;;;;;;2.92;1.80;;;;;;;19.34;76.13;99550.34;4363789;32;34228;-77
2022/09/09 02:28:25;;;;;;;3.10;2.50;;;;;;;19.67;74.42;99545.38;4350734;32;33877;-76
2022/09/09 02:30:54;;;;;;;2.15;1.67;;;;;;;19.18;76.49;99536.13;4350801;32;35075;-76
2022/09/09 02:33:25;;;;;;;2.17;1.67;;;;;;;19.59;74.94;99541.47;4363213;32;34497;-75
2022/09/09 02:35:53;;;;;;;2.05;1.83;;;;;;;19.42;75.26;99533.91;4350309;32;34278;-76
2022/09/09 02:38:22;;;;;;;3.87;1.83;;;;;;;19.06;77.31;99540.22;4350219;32;33820;-76
2022/09/09 02:40:51;;;;;;;2.67;1.62;;;;;;;19.16;77.09;99532.91;4350442;32;34344;-74
2022/09/09 02:43:19;;;;;;;4.40;1.87;;;;;;;19.29;76.38;99540.28;4364146;32;34746;-77
2022/09/09 02:46:16;;;;;;;1.95;1.70;;;;;;;18.84;77.41;99530.03;4363686;32;33608;-76
2022/09/09 02:48:59;;;;;;;2.17;1.80;;;;;;;19.30;76.03;99532.81;4363195;32;33823;-74
2022/09/09 02:51:43;;;;;;;;;;;;;;;19.52;74.57;99546.56;4351137;32;34310;-75
2022/09/09 02:54:18;;;;;;;3.20;2.10;;;;;;;19.31;75.76;99545.44;4363234;32;34331;-74
2022/09/09 02:56:51;;;;;;;1.80;1.65;;;;;;;19.31;75.49;99550.94;4350306;32;33741;-74
2022/09/09 02:59:19;;;;;;;2.30;2.10;;;;;;;19.18;76.19;99542.44;4350628;32;32047;-74
2022/09/09 03:01:46;;;;;;;4.47;1.90;;;;;;;19.05;76.60;99548.81;4363013;32;34973;-72
2022/09/09 03:04:14;;;;;;;1.90;1.70;;;;;;;19.05;76.93;99552.37;4363940;32;34868;-73
2022/09/09 03:06:41;;;;;;;2.10;1.80;;;;;;;18.91;77.27;99557.09;4363900;32;33215;-73
2022/09/09 03:09:10;;;;;;;2.97;2.00;;;;;;;19.19;76.08;99560.56;4363046;32;34508;-74
2022/09/09 03:11:38;;;;;;;3.33;2.03;;;;;;;19.27;75.09;99556.28;4363135;32;35148;-73
2022/09/09 03:14:06;;;;;;;2.58;2.10;;;;;;;19.46;74.29;99556.91;4363687;32;34045;-73
2022/09/09 03:16:34;;;;;;;2.53;2.28;;;;;;;19.35;74.84;99563.78;4363732;32;34337;-77
2022/09/09 03:19:02;;;;;;;3.50;2.62;;;;;;;19.24;75.14;99556.88;4363633;32;34740;-74
2022/09/09 03:21:30;;;;;;;2.03;1.80;;;;;;;18.93;76.67;99565.03;4363420;32;34986;-74
2022/09/09 03:23:59;;;;;;;3.20;2.25;;;;;;;18.63;78.49;99570.84;4363567;32;32549;-77
2022/09/09 03:26:27;;;;;;;2.72;2.08;;;;;;;18.81;77.67;99557.31;4363875;32;33272;-74
2022/09/09 03:28:55;;;;;;;5.60;2.25;;;;;;;18.45;79.09;99558.84;4363188;32;34546;-73
2022/09/09 03:31:22;;;;;;;3.15;1.90;;;;;;;18.28;80.32;99558.66;4363757;32;34205;-75
2022/09/09 03:33:50;;;;;;;2.75;2.17;;;;;;;18.56;78.65;99556.72;4363192;32;33753;-76
2022/09/09 03:36:18;;;;;;;2.42;2.05;;;;;;;18.35;78.89;99553.56;4363622;32;34233;-73
2022/09/09 03:38:46;;;;;;;3.00;2.50;;;;;;;18.15;80.95;99559.47;4363125;32;34788;-73
2022/09/09 03:41:13;;;;;;;3.67;2.70;;;;;;;18.79;77.74;99552.13;4363310;32;34284;-73
2022/09/09 03:43:41;;;;;;;3.25;2.35;;;;;;;18.25;80.27;99562.00;4363039;32;34131;-75
2022/09/09 03:46:09;;;;;;;3.55;2.45;;;;;;;18.92;76.38;99555.12;4363351;32;33638;-74
2022/09/09 03:48:38;;;;;;;3.15;2.30;;;;;;;18.76;76.94;99565.63;4363574;32;33818;-73
2022/09/09 03:51:05;;;;;;;3.47;2.25;;;;;;;19.31;74.48;99572.94;4362866;32;34292;-74
2022/09/09 03:53:34;;;;;;;3.58;2.55;;;;;;;19.19;74.76;99573.50;4363677;32;33968;-74
2022/09/09 03:56:02;;;;;;;3.15;2.53;;;;;;;19.00;75.44;99574.47;4363564;32;34375;-76
2022/09/09 03:58:29;;;;;;;2.90;2.37;;;;;;;18.67;77.88;99573.78;4363340;32;34780;-78
2022/09/09 04:00:59;;;;;;;4.93;2.97;;;;;;;18.83;76.64;99577.03;4349957;32;34320;-72
2022/09/09 04:03:27;;;;;;;3.60;2.58;;;;;;;18.75;76.58;99583.25;4363262;32;34568;-74
2022/09/09 04:05:56;;;;;;;3.70;2.80;;;;;;;18.92;76.48;99577.97;4362639;32;33517;-78
2022/09/09 04:08:27;;;;;;;3.78;3.05;;;;;;;18.95;76.07;99584.78;4363388;32;34780;-78
2022/09/09 04:10:57;;;;;;;3.35;2.60;;;;;;;19.13;75.34;99580.25;4363286;32;34299;-77
2022/09/09 04:13:26;;;;;;;3.15;2.47;;;;;;;18.46;78.35;99570.62;4363361;32;33753;-77
2022/09/09 04:15:56;;;;;;;3.83;2.70;;;;;;;18.53;77.97;99586.72;4363205;32;33334;-77
2022/09/09 04:18:25;;;;;;;3.33;2.60;;;;;;;19.07;75.52;99579.56;4362929;32;34102;-76
2022/09/09 04:20:54;;;;;;;3.62;2.67;;;;;;;19.11;75.49;99579.75;4362716;32;34310;-76
2022/09/09 04:23:23;;;;;;;3.45;2.40;;;;;;;18.83;76.51;99577.03;4362498;32;34852;-76
2022/09/09 04:25:52;;;;;;;3.70;2.62;;;;;;;19.07;74.90;99574.06;4362435;32;33492;-76
2022/09/09 04:28:22;;;;;;;3.60;3.10;;;;;;;19.22;74.67;99573.72;4363426;32;34060;-76
2022/09/09 04:30:51;;;;;;;3.47;2.58;;;;;;;19.23;74.20;99577.28;4363019;32;34049;-76
2022/09/09 04:33:19;;;;;;;4.25;2.33;;;;;;;19.04;74.65;99577.41;4361362;32;34921;-76
2022/09/09 04:35:49;;;;;;;3.53;2.65;;;;;;;18.56;77.54;99578.69;4358404;32;33720;-75
2022/09/09 04:38:17;;;;;;;3.22;2.45;;;;;;;18.50;77.69;99573.59;4361291;32;34641;-76
2022/09/09 04:40:49;;;;;;;3.45;2.53;;;;;;;18.58;77.71;99567.41;4361757;32;34634;-77
2022/09/09 04:43:18;;;;;;;3.90;2.92;;;;;;;18.32;78.94;99561.59;4361754;32;33425;-77
2022/09/09 04:45:53;;;;;;;3.53;2.62;;;;;;;18.20;79.71;99562.09;4346831;33;33360;-76
2022/09/09 04:48:21;;;;;;;3.92;2.85;;;;;;;18.54;77.93;99563.62;4346748;33;34053;-78
2022/09/09 04:50:59;;;;;;;4.18;2.85;;;;;;;17.46;84.33;99559.28;4346541;33;34291;-77
2022/09/09 04:53:27;;;;;;;4.00;2.65;;;;;;;18.14;80.47;99563.31;4347100;33;34090;-76
2022/09/09 04:56:04;;;;;;;3.67;2.90;;;;;;;18.64;78.11;99558.75;4333518;33;33535;-75
2022/09/09 04:58:32;;;;;;;4.37;3.28;;;;;;;18.33;79.94;99561.28;4343609;32;33855;-79
2022/09/09 05:01:07;;;;;;;4.18;3.05;;;;;;;18.23;80.61;99572.50;4361617;32;34073;-77
2022/09/09 05:03:35;;;;;;;3.28;2.70;;;;;;;18.29;79.97;99575.94;4347952;32;33509;-77
2022/09/09 05:06:09;;;;;;;3.03;2.53;;;;;;;18.37;79.65;99580.72;4361414;32;33345;-74
2022/09/09 05:08:38;;;;;;;5.12;2.95;;;;;;;18.58;78.23;99581.13;4359697;32;33961;-76
2022/09/09 05:11:24;;;;;;;3.50;2.65;;;;;;;18.72;77.76;99579.16;4342320;32;35060;-72
2022/09/09 05:13:52;;;;;;;3.30;2.60;;;;;;;18.67;78.15;99583.97;4361716;32;34413;-72
2022/09/09 05:16:21;;;;;;;4.72;2.85;;;;;;;19.07;76.20;99582.31;4358018;32;33590;-73
2022/09/09 05:18:51;;;;;;;4.90;3.08;;;;;;;18.33;79.65;99582.44;4360364;32;35951;-72
2022/09/09 05:21:21;;;;;;;4.78;3.35;;;;;;;18.70;77.75;99586.09;4360536;32;34170;-71
2022/09/09 05:23:50;;;;;;;3.78;2.87;;;;;;;19.13;75.48;99585.75;4360975;32;34176;-72
2022/09/09 05:26:20;;;;;;;4.43;2.87;;;;;;;18.95;77.05;99582.03;4361297;32;34378;-76
2022/09/09 05:28:48;;;;;;;4.53;3.25;;;;;;;18.98;77.20;99576.72;4361294;32;34069;-73
2022/09/09 05:31:17;;;;;;;6.25;3.08;;;;;;;19.11;78.00;99590.75;4360046;32;35176;-77
2022/09/09 05:33:45;;;;;;;4.65;3.30;;;;;;;19.59;74.23;99602.00;4359577;32;34237;-76
2022/09/09 05:36:19;;;;;;;3.40;2.70;;;;;;;19.27;75.08;99603.84;4360763;32;34125;-71
2022/09/09 05:38:47;;;;;;;4.00;2.70;;;;;;;18.95;78.08;99604.84;4360058;32;33406;-71
2022/09/09 05:41:17;;;;;;;3.65;2.75;;;;;;;18.94;78.42;99596.87;4347592;32;34251;-76
2022/09/09 05:43:46;;;;;;;4.18;2.65;;;;;;;19.26;76.72;99598.63;4361084;32;33834;-75
2022/09/09 05:46:27;;;;;;;4.78;3.17;;;;;;;19.80;73.63;99598.75;4344493;32;33270;-73
2022/09/09 05:48:55;;;;;;;3.78;2.92;;;;;;;19.73;73.18;99601.97;4360489;32;33758;-72
2022/09/09 05:51:27;;;;;;;4.37;3.15;;;;;;;19.60;73.75;99609.12;4360220;32;33790;-73
2022/09/09 05:53:58;;;;;;;4.68;3.10;;;;;;;19.25;76.58;99597.84;4361025;32;33642;-73
2022/09/09 05:56:28;;;;;;;4.10;2.87;;;;;;;19.34;76.06;99600.66;4358942;32;34340;-72
2022/09/09 05:58:56;;;;;;;4.40;3.00;;;;;;;19.73;74.67;99599.19;4360828;32;34066;-72
2022/09/09 06:01:26;;;;;;;3.72;2.90;;;;;;;19.70;75.17;99599.84;4360099;32;34879;-71
2022/09/09 06:03:54;;;;;;;4.05;3.00;;;;;;;19.51;76.31;99596.44;4358944;32;34546;-75
2022/09/09 06:06:25;;;;;;;3.97;2.90;;;;;;;20.18;71.72;99596.37;4359936;32;33199;-71
2022/09/09 06:08:57;;;;;;;4.00;3.00;;;;;;;20.31;71.37;99599.38;4360300;32;34641;-74
2022/09/09 06:11:26;;;;;;;4.25;3.37;;;;;;;19.78;73.79;99593.56;4360411;32;34942;-73
2022/09/09 06:13:54;;;;;;;4.25;3.17;;;;;;;19.83;75.12;99596.19;4360373;32;35044;-70
2022/09/09 06:16:23;;;;;;;5.15;2.95;;;;;;;19.62;75.74;99597.81;4357630;32;33663;-79
2022/09/09 06:18:52;;;;;;;5.20;3.17;;;;;;;20.11;73.50;99601.53;4354125;32;34077;-77
2022/09/09 06:21:25;;;;;;;4.93;3.10;;;;;;;20.51;71.94;99600.75;4359551;32;33753;-73
2022/09/09 06:23:53;;;;;;;3.95;3.25;;;;;;;20.08;76.32;99599.41;4360096;32;33718;-76
2022/09/09 06:26:30;;;;;;;4.35;2.83;;;;;;;20.69;73.25;99606.03;4347188;32;33547;-82
2022/09/09 06:28:59;;;;;;;3.22;2.55;;;;;;;21.29;68.76;99607.28;4353694;32;34737;-70
2022/09/09 06:31:30;;;;;;;3.97;2.85;;;;;;;21.27;68.78;99603.19;4347615;32;34997;-77
2022/09/09 06:33:59;;;;;;;4.18;2.70;;;;;;;21.46;67.98;99613.94;4361104;32;33900;-71
2022/09/09 06:36:28;;;;;;;3.70;2.65;;;;;;;21.49;67.67;99605.03;4358750;32;33471;-69
2022/09/09 06:38:56;;;;;;;2.97;2.40;;;;;;;21.46;67.58;99609.22;4358766;32;33782;-70
2022/09/09 06:41:28;;;;;;;2.97;2.37;;;;;;;21.21;70.11;99598.97;4356379;32;33789;-70
2022/09/09 06:43:56;;;;;;;3.78;2.40;;;;;;;21.21;69.22;99599.81;4347055;32;34039;-69
2022/09/09 06:46:30;;;;;;;3.97;2.42;;;;;;;20.61;69.65;99606.00;4348499;32;34103;-68
2022/09/09 06:48:59;;;;;;;2.60;2.10;;;;;;;20.85;71.50;99613.84;4361900;32;34032;-70
2022/09/09 06:51:29;;;;;;;2.65;2.20;;;;;;;20.08;71.94;99611.22;4349321;32;34208;-68
2022/09/09 06:53:58;;;;;;;4.75;2.03;;;;;;;20.78;72.44;99617.09;4348834;32;34081;-68
2022/09/09 06:56:27;;;;;;;2.92;2.22;;;;;;;21.10;70.25;99618.63;4362323;32;33349;-70
2022/09/09 06:58:58;;;;;;;2.58;2.08;;;;;;;21.38;68.64;99618.31;4362489;32;33609;-70
2022/09/09 07:01:31;;;;;;;2.30;1.90;;;;;;;21.44;69.30;99621.75;4348487;32;34165;-80
2022/09/09 07:04:00;;;;;;;5.95;2.50;;;;;;;21.91;64.89;99624.62;4362332;32;34930;-74
2022/09/09 07:06:32;;;;;;;2.87;2.10;;;;;;;21.49;67.15;99627.13;4362569;32;33147;-72
2022/09/09 07:09:05;;;;;;;2.33;1.90;;;;;;;21.01;69.43;99628.00;4351457;32;34026;-71
2022/09/09 07:11:37;;;;;;;2.53;2.10;;;;;;;21.18;67.18;99629.97;4360959;32;35127;-72
2022/09/09 07:14:05;;;;;;;3.25;2.30;;;;;;;20.96;68.14;99623.44;4361166;32;34679;-75
2022/09/09 07:16:36;;;;;;;3.17;2.20;;;;;;;21.04;70.85;99628.16;4349959;32;34285;-70
2022/09/09 07:19:06;;;;;;;3.33;2.30;;;;;;;21.47;70.99;99623.88;4345258;33;33696;-71
2022/09/09 07:21:34;;;;;;;2.85;2.17;;;;;;;21.57;70.19;99623.53;4347461;33;33642;-72
2022/09/09 07:24:02;;;;;;;2.65;2.00;;;;;;;21.57;68.19;99631.00;4364739;32;33854;-72
2022/09/09 07:26:30;;;;;;;4.62;2.37;;;;;;;22.14;65.66;99630.78;4358691;32;33583;-71
2022/09/09 07:28:59;;;;;;;3.03;2.28;;;;;;;22.38;63.09;99623.91;4361878;32;34703;-69
2022/09/09 07:31:32;;;;;;;3.05;1.98;;;;;;;21.78;66.22;99634.72;4360170;32;34210;-71
2022/09/09 07:34:00;;;;;;;3.10;2.22;;;;;;;22.26;64.55;99632.88;4348642;32;33623;-76
2022/09/09 07:36:30;;;;;;;2.92;2.20;;;;;;;22.60;63.33;99633.88;4361973;32;33456;-70
2022/09/09 07:39:06;;;;;;;2.05;1.52;;;;;;;22.11;65.54;99639.69;4341712;33;34005;-71
2022/09/09 07:41:41;;;;;;;2.47;2.15;;;;;;;22.40;65.61;99636.25;4346946;32;35010;-71
2022/09/09 07:44:29;;;;;;;2.78;2.00;;;;;;;21.71;69.42;99646.25;4346097;32;34285;-72
2022/09/09 07:46:57;;;;;;;1.83;1.40;;;;;;;22.52;64.79;99635.53;4359026;32;34515;-72
2022/09/09 07:49:25;;;;;;;2.25;1.77;;;;;;;22.59;64.18;99637.78;4348091;32;33944;-72
2022/09/09 07:51:59;;;;;;;2.20;1.77;;;;;;;22.62;63.17;99643.47;4361719;32;34118;-72
2022/09/09 07:54:27;;;;;;;1.98;1.77;;;;;;;22.65;62.30;99637.25;4348355;32;33954;-72
2022/09/09 07:56:55;;;;;;;4.65;1.70;;;;;;;22.63;62.39;99639.53;4373784;32;33599;-72
2022/09/09 07:59:23;;;;;;;1.50;1.40;;;;;;;22.96;61.42;99638.91;4375899;32;34819;-71
2022/09/09 08:01:55;;;;;;;2.15;1.70;;;;;;;22.39;64.48;99642.91;4376498;32;34078;-78
2022/09/09 08:04:24;;;;;;;2.70;1.42;;;;;;;22.45;65.18;99638.81;4376810;32;34694;-71
2022/09/09 08:06:55;;;;;;;1.40;1.25;;;;;;;22.72;64.17;99637.56;4363029;32;33407;-72
2022/09/09 08:09:26;;;;;;;1.55;1.30;;;;;;;22.42;62.07;99642.25;4376402;32;34099;-76
2022/09/09 08:11:56;;;;;;;1.65;1.42;;;;;;;22.59;64.12;99633.09;4375724;32;34231;-72
2022/09/09 08:14:24;;;;;;;2.22;1.73;;;;;;;23.26;60.62;99636.13;4376903;32;34416;-75
2022/09/09 08:16:53;;;;;;;2.60;1.58;;;;;;;22.80;64.71;99635.09;4353832;32;33841;-70
2022/09/09 08:19:22;;;;;;;2.40;1.50;;;;;;;23.32;63.26;99630.03;4359765;32;33677;-71
2022/09/09 08:21:50;;;;;;;1.92;1.45;;;;;;;23.44;62.84;99632.09;4361406;32;34313;-71
2022/09/09 08:24:19;;;;;;;1.40;1.30;;;;;;;23.98;57.74;99631.31;4361481;32;34084;-76
2022/09/09 08:26:49;;;;;;;1.92;1.58;;;;;;;23.54;61.71;99633.63;4349101;32;33198;-75
2022/09/09 08:29:17;;;;;;;1.67;1.40;;;;;;;23.80;61.88;99638.16;4360317;32;33586;-71
2022/09/09 08:31:52;;;;;;;1.67;1.30;;;;;;;23.57;59.91;99634.94;4361857;32;34954;-77
2022/09/09 08:34:21;;;;;;;1.95;1.55;;;;;;;23.31;60.64;99635.94;4351486;32;33692;-71
2022/09/09 08:36:49;;;;;;;7.25;1.45;;;;;;;23.42;58.51;99637.16;4370268;32;33330;-75
2022/09/09 08:39:20;;;;;;;1.55;1.25;;;;;;;24.23;56.91;99634.13;4347998;32;32648;-79
2022/09/09 08:42:29;;;;;;;1.73;1.20;;;;;;;23.92;59.72;99630.69;4348271;32;33828;-76
2022/09/09 08:45:11;;;;;;;1.20;1.10;;;;;;;23.66;57.45;99636.47;4361246;32;34047;-73
2022/09/09 08:47:52;;;;;;;1.27;1.00;;;;;;;23.58;59.11;99644.84;4360293;32;34073;-74
2022/09/09 08:50:35;;;;;;;1.85;1.27;;;;;;;24.45;56.83;99644.00;4361183;32;33965;-72
2022/09/09 08:53:16;;;;;;;1.80;1.10;;;;;;;24.28;57.50;99647.78;4361758;32;34744;-75
2022/09/09 08:55:55;;;;;;;2.60;1.23;;;;;;;24.21;56.46;99636.44;4361799;32;34046;-71
2022/09/09 08:58:32;;;;;;;1.23;1.10;;;;;;;24.82;54.93;99641.28;4344238;32;33159;-72
2022/09/09 09:01:09;;;;;;;1.60;1.10;;;;;;;24.57;53.95;99641.25;4361767;32;33753;-72
2022/09/09 09:03:59;;;;;;;1.90;1.08;;;;;;;24.35;54.93;99643.28;4361561;32;34298;-73
2022/09/09 09:06:30;;;;;;;1.25;1.15;;;;;;;24.82;54.06;99644.06;4360824;32;33749;-73
2022/09/09 09:09:02;;;;;;;1.37;1.10;;;;;;;24.97;52.35;99641.38;4359710;32;33493;-72
2022/09/09 09:11:48;;;;;;;1.45;0.90;;;;;;;24.70;54.13;99634.56;4360905;32;35429;-73
2022/09/09 09:14:23;;;;;;;1.00;0.90;;;;;;;24.85;53.40;99633.06;4335419;33;34703;-71
2022/09/09 09:16:55;;;;;;;1.10;1.00;;;;;;;25.12;51.50;99627.97;4346280;32;34494;-72
2022/09/09 09:19:26;;;;;;;1.10;1.00;;;;;;;24.36;51.37;99633.00;4360709;32;33433;-70
2022/09/09 09:22:10;;;;;;;1.20;1.10;;;;;;;24.61;51.25;99625.56;4343043;32;33980;-76
2022/09/09 09:24:52;;;;;;;1.05;0.90;;;;;;;24.73;53.01;99620.03;4333031;33;33799;-73
2022/09/09 09:27:34;;;;;;;1.20;1.05;;;;;;;25.21;50.39;99617.56;4333376;33;33585;-71
2022/09/09 09:30:19;;;;;;;1.25;1.15;;;;;;;24.81;52.43;99617.47;4346805;33;33260;-72
2022/09/09 09:33:03;;;;;;;1.33;1.08;;;;;;;24.96;52.77;99617.56;4346877;33;34681;-71
2022/09/09 09:35:31;;;;;;;1.20;1.10;;;;;;;24.84;52.47;99616.75;4333568;33;34984;-71
2022/09/09 09:38:02;;;;;;;1.40;0.98;;;;;;;24.46;50.90;99607.59;4347959;32;34038;-72
2022/09/09 09:40:57;;;;;;;2.00;1.17;;;;;;;24.81;51.56;99601.62;4360669;32;33622;-72
2022/09/09 09:43:28;;;;;;;1.52;1.00;;;;;;;24.77;51.09;99618.16;4361698;32;33653;-71
2022/09/09 09:46:00;;;;;;;1.20;1.10;;;;;;;25.43;47.43;99616.22;4360365;32;33973;-71
2022/09/09 09:48:45;;;;;;;1.65;1.00;;;;;;;24.83;47.27;99617.94;4360280;32;34595;-71
2022/09/09 09:51:15;;;;;;;0.82;0.82;;;;;;;24.44;47.50;99618.22;4361279;32;32938;-72
2022/09/09 09:53:43;;;;;;;0.98;0.80;;;;;;;25.17;48.86;99616.62;4360285;32;34084;-74
2022/09/09 09:56:14;;;;;;;1.15;0.80;;;;;;;25.20;45.04;99620.69;4348113;32;33900;-71
2022/09/09 09:58:45;;;;;;;0.77;0.77;;;;;;;25.29;46.38;99629.69;4360484;32;34793;-72
2022/09/09 10:01:29;;;;;;;1.15;0.75;;;;;;;25.01;43.25;99622.09;4361124;32;34211;-76
2022/09/09 10:03:59;;;;;;;0.70;0.70;;;;;;;24.92;43.31;99613.88;4347593;32;33921;-71
2022/09/09 10:06:35;;;;;;;1.40;0.95;;;;;;;25.00;46.09;99622.44;4358861;32;34137;-75
2022/09/09 10:09:24;;;;;;;0.90;0.90;;;;;;;25.23;42.53;99614.44;4360065;32;34568;-71
2022/09/09 10:12:19;;;;;;;0.75;0.75;;;;;;;25.58;44.07;99614.69;4347453;32;33313;-72
2022/09/09 10:14:47;;;;;;;0.93;0.90;;;;;;;26.22;41.72;99617.63;4347461;32;34526;-72
2022/09/09 10:17:31;;;;;;;1.50;0.80;;;;;;;26.17;44.27;99610.34;4360644;32;34181;-73
2022/09/09 10:20:44;;;;;;;2.00;0.70;;;;;;;26.81;39.85;99611.19;4360875;32;34866;-73
2022/09/09 10:23:36;;;;;;;0.80;0.80;;;;;;;26.93;40.79;99611.06;4362766;32;33125;-71
2022/09/09 10:26:21;;;;;;;0.77;0.77;;;;;;;26.49;40.81;99605.59;4362842;32;34791;-72
2022/09/09 10:28:55;;;;;;;1.25;0.80;;;;;;;26.49;43.28;99607.59;4349256;32;34123;-73
2022/09/09 10:31:31;;;;;;;1.08;0.70;;;;;;;27.19;38.06;99618.81;4349658;32;34251;-73
2022/09/09 10:34:17;;;;;;;0.90;0.88;;;;;;;27.00;37.52;99611.22;4349587;32;34379;-74
2022/09/09 10:36:48;;;;;;;1.20;0.80;;;;;;;27.19;35.71;99613.25;4362696;32;34083;-72
2022/09/09 10:39:35;;;;;;;0.75;0.75;;;;;;;26.71;37.99;99598.59;4348612;32;34796;-72
2022/09/09 10:42:12;;;;;;;1.83;0.80;;;;;;;26.84;38.07;99604.06;4350273;32;34074;-71
2022/09/09 10:45:05;;;;;;;0.70;0.70;;;;;;;26.66;40.16;99598.91;4362657;32;33157;-73
2022/09/09 10:47:57;;;;;;;0.93;0.80;;;;;;;26.59;40.64;99609.88;4362196;32;34790;-73
2022/09/09 10:50:42;;;;;;;0.80;0.80;;;;;;;27.21;37.99;99604.50;4362808;32;35052;-71
2022/09/09 10:53:38;;;;;;;1.58;0.70;;;;;;;26.99;39.56;99606.81;4351099;32;33973;-74
2022/09/09 10:56:14;;;;;;;0.70;0.70;;;;;;;27.72;34.05;99590.47;4363069;32;33408;-73
2022/09/09 10:58:52;;;;;;;0.98;0.70;;;;;;;27.52;35.81;99594.47;4349003;32;34672;-73
2022/09/09 11:01:50;;;;;;;1.00;0.70;;;;;;;26.42;37.23;99596.28;4349196;32;33887;-72
2022/09/09 11:04:35;;;;;;;0.70;0.70;;;;;;;27.03;38.17;99600.53;4362953;32;33652;-72
2022/09/09 11:07:07;;;;;;;0.60;0.60;;;;;;;27.30;37.35;99590.41;4362298;32;33683;-72
2022/09/09 11:09:48;;;;;;;1.08;1.00;;;;;;;27.70;34.33;99587.25;4349542;32;33466;-72
2022/09/09 11:12:20;;;;;;;0.60;0.60;;;;;;;27.36;36.90;99594.50;4362775;32;34517;-72
2022/09/09 11:14:54;;;;;;;0.80;0.80;;;;;;;27.74;35.16;99585.34;4342294;32;34501;-71
2022/09/09 11:17:22;;;;;;;;;;;;;;;27.41;35.82;99581.13;4363846;32;33454;-71
2022/09/09 11:19:50;;;;;;;1.77;0.75;;;;;;;27.18;35.83;99574.63;4363710;32;35097;-71
2022/09/09 11:22:29;;;;;;;0.73;0.70;;;;;;;27.31;37.28;99583.69;4364957;32;34204;-71
2022/09/09 11:25:20;;;;;;;1.27;0.77;;;;;;;27.42;36.77;99593.84;4361841;32;34461;-71
2022/09/09 11:27:56;;;;;;;0.70;0.60;;;;;;;27.77;36.36;99592.94;4351000;32;33630;-72
2022/09/09 11:30:55;;;;;;;1.05;0.60;;;;;;;27.39;37.47;99593.81;4362039;32;33965;-72
2022/09/09 11:34:08;;;;;;;0.70;0.70;;;;;;;27.24;38.14;99591.88;4348942;32;34981;-72
2022/09/09 11:36:54;;;;;;;0.70;0.70;;;;;;;27.25;38.30;99596.28;4361147;32;34639;-72
2022/09/09 11:39:30;;;;;;;2.70;0.70;;;;;;;27.47;39.40;99603.91;4348503;32;33590;-71
2022/09/09 11:42:13;;;;;;;0.62;0.62;;;;;;;26.83;36.52;99591.34;4361734;32;34105;-72
2022/09/09 11:44:41;;;;;;;0.70;0.70;;;;;;;27.06;39.26;99588.66;4360820;32;34305;-72
2022/09/09 11:47:28;;;;;;;0.68;0.68;;;;;;;26.34;37.90;99579.41;4362017;32;34666;-70
2022/09/09 11:50:14;;;;;;;0.60;0.60;;;;;;;26.68;37.62;99590.19;4361884;32;33538;-71
2022/09/09 11:52:48;;;;;;;0.90;0.70;;;;;;;26.91;37.54;99585.56;4361932;32;33974;-71
2022/09/09 11:55:34;;;;;;;1.40;0.80;;;;;;;27.02;37.83;99591.38;4362020;32;34042;-72
2022/09/09 11:58:02;;;;;;;0.80;0.80;;;;;;;25.97;39.19;99582.44;4361654;32;34365;-71
2022/09/09 12:00:37;;;;;;;0.80;0.75;;;;;;;26.34;39.53;99584.16;4360476;32;33488;-72
2022/09/09 12:03:05;;;;;;;1.10;0.90;;;;;;;26.29;42.13;99582.47;4361848;32;33742;-72
2022/09/09 12:05:51;;;;;;;0.70;0.70;;;;;;;26.66;40.46;99578.62;4361716;32;34170;-72
2022/09/09 12:08:26;;;;;;;0.75;0.75;;;;;;;26.80;40.28;99587.28;4348260;32;33731;-72